createdAt,value
2022-11-15T00:05:41.476Z,5.68
2022-11-15T00:11:20.491Z,5.62
2022-11-15T00:17:00.153Z,5.73
2022-11-15T00:22:39.476Z,5.77
2022-11-15T00:28:18.856Z,5.91
2022-11-15T00:33:58.186Z,5.87
2022-11-15T00:39:37.466Z,5.74
2022-11-15T00:45:16.903Z,5.39
2022-11-15T00:50:56.044Z,5.15
2022-11-15T00:56:35.150Z,5.07
2022-11-15T01:02:14.545Z,4.93
2022-11-15T01:07:54.908Z,4.70
2022-11-15T01:13:34.726Z,4.84
2022-11-15T01:19:13.966Z,4.90
2022-11-15T01:24:53.271Z,4.70
2022-11-15T01:30:32.674Z,4.71
2022-11-15T01:36:16.879Z,4.57
2022-11-15T01:41:56.329Z,4.49
2022-11-15T01:47:41.316Z,4.53
2022-11-15T01:53:22.540Z,4.61
2022-11-15T01:59:03.674Z,4.66
2022-11-15T02:04:44.197Z,4.50
2022-11-15T02:10:24.578Z,4.50
2022-11-15T02:16:14.580Z,4.72
2022-11-15T02:22:06.212Z,4.76
2022-11-15T02:27:57.687Z,4.90
2022-11-15T02:33:43.059Z,5.03
2022-11-15T02:39:22.307Z,4.97
2022-11-15T02:45:05.622Z,5.08
2022-11-15T02:50:46.252Z,5.04
2022-11-15T02:56:25.695Z,4.78
2022-11-15T03:02:17.611Z,4.69
2022-11-15T03:08:15.559Z,4.77
2022-11-15T03:13:59.961Z,5.03
2022-11-15T03:19:46.756Z,5.11
2022-11-15T03:25:27.969Z,5.03
2022-11-15T03:31:28.288Z,5.10
2022-11-15T03:37:08.239Z,5.27
2022-11-15T03:42:51.087Z,5.28
2022-11-15T03:48:38.158Z,5.35
2022-11-15T03:54:17.789Z,5.24
2022-11-15T03:59:57.215Z,5.04
2022-11-15T04:05:36.348Z,5.05
2022-11-15T04:11:15.643Z,4.97
2022-11-15T04:16:54.731Z,4.87
2022-11-15T04:22:52.498Z,4.67
2022-11-15T04:28:32.210Z,4.37
2022-11-15T04:34:11.468Z,4.10
2022-11-15T04:39:50.646Z,3.93
2022-11-15T04:45:29.912Z,3.91
2022-11-15T04:51:09.299Z,3.91
2022-11-15T04:56:48.804Z,3.80
2022-11-15T05:02:51.051Z,3.73
2022-11-15T05:08:30.550Z,3.69
2022-11-15T05:14:09.761Z,3.69
2022-11-15T05:19:49.249Z,3.78
2022-11-15T05:25:28.549Z,3.71
2022-11-15T05:31:17.266Z,3.75
2022-11-15T05:36:56.862Z,3.64
2022-11-15T05:42:36.177Z,3.60
2022-11-15T05:48:15.931Z,3.47
2022-11-15T05:53:57.361Z,3.46
2022-11-15T05:59:36.844Z,3.48
2022-11-15T06:05:16.197Z,3.64
2022-11-15T06:10:55.502Z,3.57
2022-11-15T06:16:34.638Z,3.65
2022-11-15T06:22:14.228Z,3.55
2022-11-15T06:27:53.932Z,3.57
2022-11-15T06:33:34.154Z,3.60
2022-11-15T06:39:13.793Z,4.34
2022-11-15T06:44:53.341Z,4.14
2022-11-15T06:50:32.390Z,3.95
2022-11-15T06:56:11.502Z,3.84
2022-11-15T07:01:51.118Z,3.85
2022-11-15T07:07:30.224Z,3.69
2022-11-15T07:13:10.037Z,3.62
2022-11-15T07:18:49.726Z,3.71
2022-11-15T07:24:29.270Z,3.57
2022-11-15T07:30:09.145Z,3.51
2022-11-15T07:35:51.256Z,3.52
2022-11-15T07:41:30.881Z,3.40
2022-11-15T07:47:10.113Z,3.54
2022-11-15T07:52:54.340Z,3.55
2022-11-15T07:58:33.748Z,3.46
2022-11-15T08:04:12.958Z,3.59
2022-11-15T08:09:52.364Z,3.59
2022-11-15T08:15:32.294Z,3.57
2022-11-15T08:21:18.185Z,3.71
2022-11-15T08:26:57.923Z,3.92
2022-11-15T08:32:37.536Z,4.08
2022-11-15T08:38:17.030Z,4.07
2022-11-15T08:43:56.732Z,4.12
2022-11-15T08:49:36.056Z,4.09
2022-11-15T08:55:17.532Z,4.20
2022-11-15T09:00:57.433Z,4.37
2022-11-15T09:06:39.738Z,4.55
2022-11-15T09:12:22.771Z,4.39
2022-11-15T09:18:02.326Z,4.33
2022-11-15T09:23:41.767Z,4.41
2022-11-15T09:29:20.828Z,4.44
2022-11-15T09:35:00.398Z,4.52
2022-11-15T09:40:39.990Z,4.70
2022-11-15T09:46:19.069Z,4.76
2022-11-15T09:51:59.141Z,4.54
2022-11-15T09:57:22.611Z,4.43
2022-11-15T10:03:03.736Z,4.30
2022-11-15T10:08:33.775Z,4.19
2022-11-15T10:13:56.383Z,4.28
2022-11-15T10:19:20.198Z,4.47
2022-11-15T10:24:42.954Z,4.53
2022-11-15T10:30:05.133Z,4.58
2022-11-15T10:35:27.677Z,4.77
2022-11-15T10:40:48.363Z,4.93
2022-11-15T10:46:45.072Z,5.08
2022-11-15T10:52:05.473Z,5.07
2022-11-15T10:57:27.930Z,4.98
2022-11-15T11:02:57.975Z,5.14
2022-11-15T11:08:23.945Z,5.29
2022-11-15T11:13:44.427Z,5.41
2022-11-15T11:19:19.486Z,5.33
2022-11-15T11:24:54.098Z,5.45
2022-11-15T11:30:23.165Z,5.65
2022-11-15T11:35:43.929Z,5.54
2022-11-15T11:41:04.679Z,5.41
2022-11-15T11:46:25.692Z,5.24
2022-11-15T11:51:49.573Z,5.03
2022-11-15T11:57:33.722Z,4.95
2022-11-15T12:03:03.758Z,4.78
2022-11-15T12:08:42.145Z,4.64
2022-11-15T12:14:04.907Z,4.57
2022-11-15T12:19:26.094Z,4.87
2022-11-15T12:24:52.933Z,4.92
2022-11-15T12:30:15.000Z,5.15
2022-11-15T12:35:39.974Z,5.25
2022-11-15T12:41:14.619Z,5.27
2022-11-15T12:46:55.774Z,5.07
2022-11-15T12:52:16.845Z,5.10
2022-11-15T12:57:42.515Z,5.31
2022-11-15T13:03:20.421Z,5.37
2022-11-15T13:08:44.903Z,5.41
2022-11-15T13:14:25.563Z,5.09
2022-11-15T13:20:01.548Z,4.81
2022-11-15T13:25:22.348Z,4.74
2022-11-15T13:30:53.307Z,4.71
2022-11-15T13:36:16.616Z,4.63
2022-11-15T13:41:45.492Z,4.67
2022-11-15T13:47:16.030Z,4.75
2022-11-15T13:52:38.141Z,4.75
2022-11-15T13:58:01.363Z,4.93
2022-11-15T14:03:27.372Z,5.13
2022-11-15T14:09:06.937Z,5.12
2022-11-15T14:14:29.833Z,5.21
2022-11-15T14:19:51.202Z,5.25
2022-11-15T14:25:14.956Z,5.28
2022-11-15T14:30:35.699Z,5.24
2022-11-15T14:35:58.212Z,5.31
2022-11-15T14:41:21.024Z,5.41
2022-11-15T14:46:42.005Z,5.39
2022-11-15T14:52:03.002Z,5.45
2022-11-15T14:57:23.990Z,5.38
2022-11-15T15:02:45.938Z,5.40
2022-11-15T15:08:07.279Z,5.37
2022-11-15T15:13:29.751Z,5.28
2022-11-15T15:18:50.810Z,5.11
2022-11-15T15:24:15.993Z,5.04
2022-11-15T15:29:37.087Z,5.22
2022-11-15T15:34:57.533Z,5.44
2022-11-15T15:40:21.148Z,5.48
2022-11-15T15:45:42.434Z,5.36
2022-11-15T15:51:09.121Z,5.43
2022-11-15T15:56:34.038Z,5.53
2022-11-15T16:01:54.975Z,5.67
2022-11-15T16:07:24.602Z,5.60
2022-11-15T16:12:45.221Z,5.57
2022-11-15T16:18:08.715Z,5.44
2022-11-15T16:23:29.401Z,5.69
2022-11-15T16:28:50.294Z,5.95
2022-11-15T16:34:10.876Z,5.86
2022-11-15T16:39:32.409Z,5.61
2022-11-15T16:44:53.144Z,5.54
2022-11-15T16:50:28.102Z,5.56
2022-11-15T16:55:48.970Z,5.63
2022-11-15T17:01:16.715Z,5.87
2022-11-15T17:06:37.150Z,5.98
2022-11-15T17:11:57.958Z,5.93
2022-11-15T17:17:18.825Z,5.82
2022-11-15T17:22:39.624Z,5.92
2022-11-15T17:28:00.413Z,6.06
2022-11-15T17:33:21.402Z,5.80
2022-11-15T17:38:42.596Z,5.72
2022-11-15T17:44:03.770Z,5.77
2022-11-15T17:49:24.742Z,5.94
2022-11-15T17:54:45.591Z,6.16
2022-11-15T18:00:07.329Z,6.14
2022-11-15T18:05:27.875Z,6.13
2022-11-15T18:10:48.791Z,5.86
2022-11-15T18:16:14.424Z,5.85
2022-11-15T18:21:37.633Z,5.91
2022-11-15T18:26:59.417Z,6.03
2022-11-15T18:32:19.916Z,6.04
2022-11-15T18:37:41.345Z,5.81
2022-11-15T18:43:02.223Z,5.73
2022-11-15T18:48:23.395Z,5.62
2022-11-15T18:53:44.484Z,5.56
2022-11-15T18:59:05.652Z,5.48
2022-11-15T19:04:26.271Z,5.38
2022-11-15T19:09:46.791Z,5.41
2022-11-15T19:15:10.249Z,5.42
2022-11-15T19:20:31.152Z,5.44
2022-11-15T19:25:59.533Z,5.56
2022-11-15T19:31:20.794Z,5.67
2022-11-15T19:36:42.426Z,5.58
2022-11-15T19:42:03.109Z,5.59
2022-11-15T19:47:26.858Z,5.57
2022-11-15T19:52:47.475Z,5.51
2022-11-15T19:58:08.359Z,5.46
2022-11-15T20:03:29.786Z,5.55
2022-11-15T20:08:52.196Z,5.54
2022-11-15T20:14:13.454Z,5.71
2022-11-15T20:19:34.004Z,5.78
2022-11-15T20:24:54.823Z,5.84
2022-11-15T20:30:15.608Z,6.23
2022-11-15T20:35:36.606Z,6.17
2022-11-15T20:41:00.162Z,6.20
2022-11-15T20:46:22.447Z,6.15
2022-11-15T20:51:43.946Z,6.20
2022-11-15T20:57:05.038Z,6.21
2022-11-15T21:02:26.332Z,6.28
2022-11-15T21:07:47.734Z,6.15
2022-11-15T21:13:08.743Z,6.15
2022-11-15T21:18:30.524Z,6.24
2022-11-15T21:23:51.505Z,6.23
2022-11-15T21:29:17.051Z,6.16
2022-11-15T21:34:38.211Z,6.29
2022-11-15T21:39:58.870Z,6.31
2022-11-15T21:45:19.640Z,6.31
2022-11-15T21:50:41.742Z,6.15
2022-11-15T21:56:02.683Z,6.04
2022-11-15T22:01:42.852Z,5.94
2022-11-15T22:07:03.396Z,5.87
2022-11-15T22:12:29.437Z,5.84
2022-11-15T22:17:59.529Z,5.93
2022-11-15T22:23:20.402Z,5.96
2022-11-15T22:28:41.239Z,6.14
2022-11-15T22:34:02.094Z,6.05
2022-11-15T22:39:23.025Z,6.05
2022-11-15T22:44:43.619Z,6.18
2022-11-15T22:50:06.523Z,6.35
2022-11-15T22:55:27.322Z,6.51
2022-11-15T23:00:49.086Z,6.66
2022-11-15T23:06:09.832Z,6.47
2022-11-15T23:11:49.422Z,6.42
2022-11-15T23:17:09.913Z,6.31
2022-11-15T23:22:49.032Z,6.37
2022-11-15T23:28:09.743Z,6.51
2022-11-15T23:33:49.242Z,6.48
2022-11-15T23:39:10.225Z,6.17
2022-11-15T23:44:31.312Z,5.97
2022-11-15T23:49:52.364Z,5.82
2022-11-15T23:55:13.108Z,5.78
